Tropical Cyclones
[Index]
Season 2021-2022 Tropical Cyclone DOVI Track Map
Season 2021-2022 Summaries: [BoM-AU]
<<- Previous TC | BoM 2021-2022 Season | Next TC ->>

click for intensity scale information  Lat/long Grid: Show Hide

 Date Labels: Show Hide

Bureau of Meteorology Tropical Cyclone Data

Name: DOVI

07 Feb 2022 00:00 UTC to 12 Feb 2022 12:00 UTC

    date/time    lat    long    hPa   cat  kts
2022-02-07 00   19.1   163.6   1004         20          
2022-02-07 06   19.0   164.5   1003         25          
2022-02-07 12   19.0   165.3   1002         25          
2022-02-07 18   19.0   166.1   1001         25          
2022-02-08 00   19.1   167.1   1000         25          
2022-02-08 06   19.1   167.6   1000         30          
2022-02-08 12   19.3   168.4    996         30          
2022-02-08 18   19.0   168.7    991    1    30          
2022-02-09 00   19.3   168.8    987    1    35          
2022-02-09 06   19.7   168.9    985    2    35          
2022-02-09 12   20.0   168.8    986    1    40          
2022-02-09 18   20.6   168.9    983    2    45          
2022-02-10 00   21.1   168.8    977    2    50          
2022-02-10 06   22.2   167.9    975    2    60          
2022-02-10 12   23.0   166.9    967    3    70          
2022-02-10 18   23.8   166.5    955    4    80          
2022-02-11 00   25.0   165.9    942    4    90          
2022-02-11 06   26.7   166.2    956    3    80          
2022-02-11 12   28.8   166.1    961    3    75          
2022-02-11 18   31.8   166.3    970    3    65          
2022-02-12 00   33.5   166.4    975    2    60          
2022-02-12 06   34.5   168.1    975    2    60          
2022-02-12 12   36.3   170.2    980    2    60          
Winds are 10-min average.

Tropical cyclone tracks developed by Michael Bath using data from the Bureau of Meteorology and Google Maps.


Document: tropical_cyclone_dovi.htm
Updated: 23 June 2022
[Australian Severe Weather index] [Copyright Notice] [Email Contacts] [Search This Site] [Privacy Policy]


Main Index Home Page Stock Weather Photos Extreme Storms Discussion Storm News and Storm Chasing Reports Tropical Cyclones / Hurricanes / Typhoons Weather Data and Links Wild Fires / Bushfires Weather Observation Techniques Weather Picture Catalogue Tornado Pictures and Reports Stock Video Footage and DVDs for sale